Espy, Pennsylvania
Current Conditions -  °F | °C
As of 2:15 PM on Tuesday 21 Oct 2014 (Local Time) from KHZL Reporting Station
Overcast Overcast  
Wind Chill: 54°   Ceiling: 3300
Heat Index: 54°   Visibility: 10mi
Dew Point: 46°   Wind: 7mph
Humidity: 77%   Direction: 330°NNW
Pressure: 29.86"   Gusts: NA
Location:  41.0301°N, 76.4558°W
Report Text: KHZL 211815Z AUTO 33006KT 10SM SCT020 BKN033 OVC042 12/08 A2986 RMK AO2
Loading
Personal Weather Stations






























Interactive Weather Map
Tropical Storm Tracking
New forecast layout! Learn more

10-Day Weather Forecast

Advertisements
Track Severe Weather on mobile